Airport View

Enter AWOS ICAO identifier for current METAR.

ex. KFNL

KCTZ 290330Z AUTO 00000KT 10SM SCT080 21/21 A2993 RMK AO2 T02130213

29 Sep 2020 03:31

Frequency: 119.125

Phone: 910-592-7488

Other Area AWOS: KDPL - KEYF - KFAY - KGSB

TAF KFAY 282339Z 2900/2924 19006KT P6SM SCT004 BKN040 OVC100 TEMPO 2900/2904 3SM -SHRA SCT004 BKN012 FM290400 VRB05KT P6SM VCSH BKN015 FM290700 17005KT 3SM BR VCSH OVC007 FM291600 16010KT P6SM VCSH BKN015